HDM weather

Dirección de Seguridad Pública Municipal Heliport
Mexicali, Baja California, Mexico

Public forecast

Using degrees Celsius for public forecast. Weather courtesy of forecast.io.

Closest aviation weather report (METAR) to Dirección de Seguridad Pública Municipal Heliport

Closest report is General Rodolfo Sánchez Taboada International Airport, 12.0 nm (22.2 km) E. Retrieved 2020/02/22 04:51 UTC (26 minutes ago):

MMML 220451Z 13005KT 10SM SCT060 BKN110 19/03 A2998 RMK 8/570 CI

Closest aviation forecast (TAF) to Dirección de Seguridad Pública Municipal Heliport

Forecast is more than 6 hours old.

Closest forecast is General Rodolfo Sánchez Taboada International Airport, 12.0 nm (22.2 km) E. Retrieved 2020/02/21 18:36 UTC (11 hours ago):

TAF MMML 211630Z 2118/2218 36005KT P6SM BKN220 BECMG 2120/2121 02012KT FM220200 18005KT P6SM SCT100 BKN220 FM220800 17010KT P6SM BKN080 BKN220 FM221400 15015KT P6SM SCT080 BKN220